Portada
METAR-TAF:

METAR-TAF

Aeropuertos :

Ghriss, Argelia

latitud: 35-12N, longitud: 000-08E, altitud: 514 m

Observación

El informe se hizo hace 23 minutos, a las 09:00 UTC
Viento 9 kt del oeste-noroeste
Temperatura 21°C
Humedad 38%
Presión 1019 hPa
Visibilidad 10 km o más
sin nubes por debajo de 1500 m y sin presencia de cumulonimbus.

METAR: DAOV 130900Z 29009KT CAVOK 21/06 Q1019

Hora: 10:23 (09:23 UTC)

Pronóstico

El informe se hizo hace 1 hora y 23 minutos, a las 08:00 UTC
Pronóstico válido del 13 a las 09 UTC al 13 a las 18 UTC
Viento 10 kt del suroeste
Visibilidad 10 km o más
sin nubes por debajo de 1500 m y sin presencia de cumulonimbus.
Evolucionando progresivamente
del 13 a las 13 UTC al 13 a las 15 UTC
Viento 10 kt del noroeste

TAF: DAOV 130800Z 1309/1318 22010KT CAVOK BECMG 1313/1315 32010KT

Observaciones y pronósticos meteorológicos de más de 4000 aeropuertos (mensajes METAR y TAF).

Los puntos amarillos y rojos representan las estaciones disponibles.

Ponga el ratón en el punto deseado para ver el nombre de la estación.

Haga clic para ver las observaciones y los pronósticos meteorológicos.

Para cambiar el mapa : haga clic en los botones verdes con una cruz de color negro para hacer un zoom, en el botón verde con un guión para alejar o en las flechas verdes para mapas adyacentes.


METAR-TAF: